Air Resources Laboratory banner image
Air Resources Laboratory web site National Oceanic and Atmospheric Administration (NOAA)

nd metar


KBIS 191252Z 36015G21KT 2 1/2SM HZ SCT048 17/11 A3001 RMK AO2 SLP153 T01720111=
KDIK 191256Z AUTO 36015G21KT 2 1/2SM HZ CLR 14/09 A3010 RMK AO2 SLP181
 T01440094=
KDVL 191256Z AUTO 01010KT 4SM HZ CLR 16/10 A3005 RMK AO2 SLP184 T01610100=
KFAR 191253Z 35020G29KT 8SM -RA FEW080 OVC100 19/18 A2992 RMK AO2 PK WND
 35031/1242 LTG DSNT NE AND S TSE01 SLP131 P0006 T01890183=
KGFK 191253Z 34008KT 5SM -RA BR OVC048 17/16 A2998 RMK AO2 SLP149 P0001
 T01720156=
KHEI 191253Z AUTO 33006KT 2 1/2SM -RA BR SCT080 OVC090 14/12 A3011 RMK AO2
 SLP187 P0006 T01390122=
KISN 191252Z AUTO 36009KT 5SM HZ CLR 12/07 A3019 RMK AO2 SLP220 T01220067=
KJMS 191256Z AUTO 36010KT 3SM -RA BR FEW013 OVC110 17/17 A2994 RMK AO2 SLP131
 P0000 T01720167=
KMIB 191256Z AUTO 36012KT 10SM CLR 14/06 A3010 RMK AO2 SLP194 T01350064 $=
KMOT 191254Z 34013G20KT 7SM FU CLR 14/07 A3010 RMK AO2 SLP189 T01440067=
KN60 191252Z AUTO 02012G22KT 14/08 A3008 RMK AO1 SLP180 T01440078=
KRDR 191256Z AUTO 01004KT 7SM -RA BKN049 17/15 A2999 RMK AO2
 RAB1156E14DZB14E20DZB22E23RAB23 SLP158 P0002 T01690151 $=